Time;durP1;ratioP1;P1;durP2;ratioP2;P2;SDS_P1;SDS_P2;PMS_P1;PMS_P2;Temp;Humidity;BMP_temperature;BMP_pressure;BME280_temperature;BME280_humidity;BME280_pressure;Samples;Min_cycle;Max_cycle;Signal;HPM_P1;HPM_P2
2023/02/21 02:15:10;;;;;;;56.10;27.65;;;10.60;99.90;;;;;;5072718;28;20028;-69
2023/02/21 02:17:42;;;;;;;50.28;26.20;;;10.60;99.90;;;;;;5072751;28;20127;-70
2023/02/21 02:20:37;;;;;;;53.88;26.35;;;10.70;99.90;;;;;;5072520;28;20067;-70
2023/02/21 02:23:39;;;;;;;56.65;27.85;;;10.70;99.90;;;;;;5071311;28;20039;-70
2023/02/21 02:26:49;;;;;;;56.17;27.50;;;10.70;99.90;;;;;;5072370;28;20016;-70
2023/02/21 02:30:03;;;;;;;60.97;27.65;;;10.80;99.90;;;;;;5016655;28;20389;-69
2023/02/21 02:32:49;;;;;;;57.80;28.38;;;10.80;99.90;;;;;;5054748;28;20039;-69
2023/02/21 02:35:41;;;;;;;53.15;26.92;;;10.70;99.90;;;;;;5075031;28;20027;-70
2023/02/21 02:38:13;;;;;;;55.90;27.52;;;10.70;99.90;;;;;;5060969;28;20036;-70
2023/02/21 02:41:04;;;;;;;56.72;29.38;;;10.60;99.90;;;;;;5091880;28;20055;-70
2023/02/21 02:43:31;;;;;;;61.30;30.15;;;10.50;99.90;;;;;;5092360;28;20351;-70
2023/02/21 02:46:03;;;;;;;53.17;27.50;;;10.50;99.90;;;;;;5092359;28;20032;-71
2023/02/21 02:48:40;;;;;;;55.83;27.50;;;10.60;99.90;;;;;;5091363;28;20039;-70
2023/02/21 02:51:11;;;;;;;60.80;29.23;;;10.60;99.90;;;;;;5090942;28;20543;-70
2023/02/21 02:53:37;;;;;;;59.42;30.05;;;10.70;99.90;;;;;;5092514;28;20028;-70
2023/02/21 02:56:08;;;;;;;61.50;29.20;;;10.70;99.90;;;;;;5092146;28;20020;-70
2023/02/21 02:58:54;;;;;;;60.95;30.13;;;10.90;99.90;;;;;;5092510;28;20031;-70
2023/02/21 03:01:48;;;;;;;61.17;29.15;;;10.70;99.90;;;;;;5077833;28;20478;-69
2023/02/21 03:04:33;;;;;;;57.83;29.02;;;10.60;99.90;;;;;;5090859;28;20120;-69
2023/02/21 03:07:39;;;;;;;58.88;28.75;;;10.60;99.90;;;;;;5092084;28;20036;-69
2023/02/21 03:10:19;;;;;;;59.10;28.58;;;10.50;99.90;;;;;;5090682;28;20073;-70
2023/02/21 03:12:52;;;;;;;55.58;29.00;;;10.60;99.90;;;;;;5091751;28;20032;-71
2023/02/21 03:15:20;;;;;;;60.67;28.67;;;10.60;99.90;;;;;;5091757;28;20374;-71
2023/02/21 03:18:00;;;;;;;56.75;28.70;;;10.70;99.90;;;;;;5091802;28;20043;-71
2023/02/21 03:20:27;;;;;;;60.15;29.27;;;10.70;99.90;;;;;;5090534;28;20039;-70
2023/02/21 03:22:55;;;;;;;60.45;30.15;;;10.60;99.90;;;;;;5091818;28;20032;-70
2023/02/21 03:25:21;;;;;;;;;;;10.60;99.90;;;;;;5092227;28;20036;-69
2023/02/21 03:27:48;;;;;;;62.65;29.13;;;10.60;99.90;;;;;;5091542;28;20342;-70
2023/02/21 03:30:14;;;;;;;63.58;29.17;;;10.60;99.90;;;;;;5091474;28;20032;-70
2023/02/21 03:32:45;;;;;;;61.03;30.05;;;10.60;99.90;;;;;;5090447;28;20028;-71
2023/02/21 03:35:12;;;;;;;58.03;30.42;;;10.50;99.90;;;;;;5091544;28;20472;-70
2023/02/21 03:37:53;;;;;;;59.47;30.20;;;10.60;99.90;;;;;;5091817;28;20528;-69
2023/02/21 03:40:36;;;;;;;61.35;29.40;;;10.60;99.90;;;;;;5091543;28;20040;-69
2023/02/21 03:43:06;;;;;;;56.78;28.10;;;10.70;99.90;;;;;;5091593;28;20036;-69
2023/02/21 03:45:32;;;;;;;59.33;29.98;;;10.50;99.90;;;;;;5091338;28;20491;-70
2023/02/21 03:47:58;;;;;;;60.97;29.65;;;10.60;99.90;;;;;;5091404;28;20028;-71
2023/02/21 03:50:24;;;;;;;59.58;28.60;;;10.60;99.90;;;;;;5091190;28;20041;-70
2023/02/21 03:52:49;;;;;;;56.75;28.10;;;10.70;99.90;;;;;;5091569;28;20024;-70
2023/02/21 03:55:16;;;;;;;56.65;29.25;;;10.70;99.90;;;;;;5091159;28;20039;-70
2023/02/21 03:57:41;;;;;;;61.67;30.65;;;10.80;99.90;;;;;;5091361;28;20067;-70
2023/02/21 04:00:08;;;;;;;60.90;30.00;;;10.60;99.90;;;;;;5090917;28;20489;-70
2023/02/21 04:02:33;;;;;;;63.55;29.50;;;10.60;99.90;;;;;;5090934;28;20280;-70
2023/02/21 04:04:59;;;;;;;56.78;27.92;;;10.70;99.90;;;;;;5090138;28;20047;-70
2023/02/21 04:07:24;;;;;;;67.82;29.75;;;10.60;99.90;;;;;;5091296;28;20099;-69
2023/02/21 04:09:50;;;;;;;56.40;28.48;;;10.70;99.90;;;;;;5091125;28;20032;-70
2023/02/21 04:12:16;;;;;;;59.85;29.58;;;10.80;99.90;;;;;;5091041;28;20393;-70
2023/02/21 04:14:41;;;;;;;63.08;30.02;;;10.90;99.90;;;;;;5090817;28;20024;-70
2023/02/21 04:17:07;;;;;;;59.17;29.50;;;10.80;99.90;;;;;;5090821;28;20020;-70
2023/02/21 04:19:33;;;;;;;57.35;28.90;;;10.70;99.90;;;;;;5091167;28;20069;-69
2023/02/21 04:21:59;;;;;;;62.85;30.60;;;10.70;99.90;;;;;;5090646;28;20092;-70
2023/02/21 04:24:25;;;;;;;62.50;30.10;;;10.60;99.90;;;;;;5089570;28;20373;-70
2023/02/21 04:26:50;;;;;;;62.13;29.60;;;10.70;99.90;;;;;;5089512;28;20039;-70
2023/02/21 04:29:16;;;;;;;65.18;31.40;;;10.60;99.90;;;;;;5090286;28;20048;-69
2023/02/21 04:31:41;;;;;;;61.78;30.73;;;10.60;99.90;;;;;;5090825;28;20031;-69
2023/02/21 04:34:07;;;;;;;69.05;32.55;;;10.60;99.90;;;;;;5089740;28;20093;-71
2023/02/21 04:36:33;;;;;;;64.53;30.73;;;10.60;99.90;;;;;;5089474;28;20059;-70
2023/02/21 04:38:59;;;;;;;65.45;31.58;;;10.50;99.90;;;;;;5089316;28;20025;-69
2023/02/21 04:41:24;;;;;;;71.85;31.95;;;10.60;99.90;;;;;;5090423;28;20032;-70
2023/02/21 04:43:51;;;;;;;71.45;30.85;;;10.60;99.90;;;;;;5090934;28;20471;-70
2023/02/21 04:46:17;;;;;;;64.65;31.27;;;10.60;99.90;;;;;;5090480;28;20075;-70
2023/02/21 04:48:45;;;;;;;64.90;30.40;;;10.50;99.90;;;;;;5090419;28;20024;-70
2023/02/21 04:51:12;;;;;;;64.25;31.90;;;10.60;99.90;;;;;;5090453;28;20059;-70
2023/02/21 04:53:37;;;;;;;68.28;32.00;;;10.60;99.90;;;;;;5090463;28;20422;-71
2023/02/21 04:56:03;;;;;;;70.43;32.88;;;10.60;99.90;;;;;;5090472;28;20058;-69
2023/02/21 04:58:29;;;;;;;75.57;32.03;;;10.60;99.90;;;;;;5090827;28;20460;-70
2023/02/21 05:00:54;;;;;;;73.15;32.65;;;10.70;99.90;;;;;;5090249;28;20028;-70
2023/02/21 05:03:20;;;;;;;65.72;31.02;;;10.50;99.90;;;;;;5089123;28;20036;-70
2023/02/21 05:05:46;;;;;;;68.15;33.28;;;10.50;99.90;;;;;;5090180;28;20085;-69
2023/02/21 05:08:12;;;;;;;69.25;33.00;;;10.50;99.90;;;;;;5090126;28;20036;-69
2023/02/21 05:10:38;;;;;;;61.15;30.52;;;10.50;99.90;;;;;;5090610;28;20081;-70
2023/02/21 05:13:03;;;;;;;66.38;30.52;;;10.60;99.90;;;;;;5093991;28;20024;-70
2023/02/21 05:15:29;;;;;;;68.70;30.05;;;10.60;99.90;;;;;;5094142;28;20378;-70
2023/02/21 05:17:55;;;;;;;63.83;32.03;;;10.60;99.90;;;;;;5093804;28;20032;-69
2023/02/21 05:20:20;;;;;;;72.05;31.08;;;10.60;99.90;;;;;;5093811;28;20523;-70
2023/02/21 05:22:48;;;;;;;60.92;30.70;;;10.60;99.90;;;;;;5094151;28;20050;-70
2023/02/21 05:25:16;;;;;;;60.70;29.77;;;10.70;99.90;;;;;;5093935;28;20240;-71
2023/02/21 05:27:41;;;;;;;;;;;10.70;99.90;;;;;;5093917;28;20038;-71
2023/02/21 05:30:08;;;;;;;61.83;30.55;;;10.80;99.90;;;;;;5092646;28;19912;-71
2023/02/21 05:32:33;;;;;;;58.35;28.88;;;10.60;99.90;;;;;;5094063;28;20032;-70
2023/02/21 05:34:59;;;;;;;63.97;29.92;;;10.60;99.90;;;;;;5093496;28;20028;-70
2023/02/21 05:37:24;;;;;;;64.45;29.92;;;10.60;99.90;;;;;;5093897;28;20016;-70
2023/02/21 05:39:50;;;;;;;62.70;29.70;;;10.50;99.90;;;;;;5093368;28;20614;-69
2023/02/21 05:42:16;;;;;;;58.50;27.50;;;10.70;99.90;;;;;;5092293;28;20124;-70
2023/02/21 05:44:48;;;;;;;58.03;28.23;;;10.50;99.90;;;;;;5093303;28;20374;-69
2023/02/21 05:47:14;;;;;;;60.33;27.95;;;10.60;99.90;;;;;;5092488;28;20052;-70
2023/02/21 05:49:41;;;;;;;57.08;28.25;;;10.60;99.90;;;;;;5094016;28;20346;-70
2023/02/21 05:52:10;;;;;;;54.60;27.83;;;10.60;99.90;;;;;;5092498;28;20168;-70
2023/02/21 05:54:36;;;;;;;60.17;28.00;;;10.60;99.90;;;;;;5092454;28;20032;-70
2023/02/21 05:57:01;;;;;;;59.28;28.55;;;10.70;99.90;;;;;;5093430;28;20101;-69
2023/02/21 05:59:27;;;;;;;63.42;29.40;;;10.60;99.90;;;;;;5093087;28;20540;-70
2023/02/21 06:01:53;;;;;;;57.85;28.70;;;10.60;99.90;;;;;;5092039;28;20024;-70
2023/02/21 06:04:18;;;;;;;55.58;27.40;;;10.70;99.90;;;;;;5093573;28;20020;-71
2023/02/21 06:06:45;;;;;;;57.58;28.02;;;10.80;99.90;;;;;;5093362;28;20047;-70
2023/02/21 06:09:10;;;;;;;57.72;28.20;;;10.80;99.90;;;;;;5093163;28;20036;-71
2023/02/21 06:11:39;;;;;;;55.88;28.38;;;10.70;99.90;;;;;;5091942;28;20035;-71
2023/02/21 06:14:13;;;;;;;56.83;28.67;;;10.80;99.90;;;;;;5093176;28;20328;-70
2023/02/21 06:16:39;;;;;;;54.22;28.20;;;10.80;99.90;;;;;;5093380;28;20024;-70
2023/02/21 06:19:07;;;;;;;57.10;26.10;;;10.90;99.90;;;;;;5093657;28;20084;-70
2023/02/21 06:21:34;;;;;;;58.45;27.55;;;10.90;99.90;;;;;;5093774;28;20028;-70
2023/02/21 06:24:00;;;;;;;55.72;27.60;;;10.80;99.90;;;;;;5092907;28;20028;-70
2023/02/21 06:26:27;;;;;;;57.90;27.83;;;10.80;99.90;;;;;;5092759;28;20028;-69
2023/02/21 06:28:53;;;;;;;54.13;26.50;;;10.90;99.90;;;;;;5092893;28;20382;-70
2023/02/21 06:31:19;;;;;;;53.22;27.77;;;10.80;99.90;;;;;;5093262;28;20040;-70
2023/02/21 06:33:49;;;;;;;56.63;28.13;;;10.80;99.90;;;;;;5092788;28;20078;-71
2023/02/21 06:36:19;;;;;;;54.03;26.48;;;10.90;99.90;;;;;;5092994;28;20106;-69
2023/02/21 06:38:46;;;;;;;57.47;26.67;;;10.90;99.90;;;;;;5093669;28;20470;-71
2023/02/21 06:41:15;;;;;;;56.10;26.83;;;10.90;99.90;;;;;;5093314;28;20459;-70
2023/02/21 06:43:41;;;;;;;54.80;27.27;;;10.90;99.90;;;;;;5092164;28;20043;-71
2023/02/21 06:46:07;;;;;;;60.35;27.60;;;10.90;99.90;;;;;;5052491;28;20041;-71
2023/02/21 06:48:32;;;;;;;55.72;26.63;;;10.80;99.90;;;;;;5052733;28;20035;-71
2023/02/21 06:50:58;;;;;;;56.65;27.40;;;10.80;99.90;;;;;;5051912;28;20131;-71
2023/02/21 06:53:24;;;;;;;56.20;26.00;;;10.90;99.90;;;;;;5051496;28;20033;-70
2023/02/21 06:55:50;;;;;;;58.92;27.52;;;11.00;99.90;;;;;;5052376;28;20358;-70
2023/02/21 06:58:16;;;;;;;52.60;26.52;;;11.00;99.90;;;;;;5052555;28;20048;-71
2023/02/21 07:00:42;;;;;;;55.55;27.92;;;11.00;99.90;;;;;;5052103;28;20431;-72
2023/02/21 07:03:07;;;;;;;61.72;28.73;;;11.10;99.90;;;;;;5052034;28;20039;-72
2023/02/21 07:05:33;;;;;;;52.78;25.88;;;11.00;99.90;;;;;;5051985;28;20052;-70
2023/02/21 07:08:01;;;;;;;55.13;25.02;;;11.00;99.90;;;;;;5051798;28;20021;-72
2023/02/21 07:10:28;;;;;;;50.30;24.65;;;11.00;99.90;;;;;;5052035;28;20093;-72
2023/02/21 07:12:54;;;;;;;53.80;27.05;;;11.00;99.90;;;;;;5051906;28;20044;-74
2023/02/21 07:15:20;;;;;;;53.00;25.65;;;11.00;99.90;;;;;;5050365;28;20025;-71
2023/02/21 07:17:46;;;;;;;57.60;26.58;;;11.10;99.90;;;;;;5051495;28;20044;-71
2023/02/21 07:20:11;;;;;;;52.30;26.02;;;11.20;99.90;;;;;;5050148;28;20059;-74
2023/02/21 07:22:37;;;;;;;56.25;26.73;;;11.20;99.90;;;;;;5051913;28;20032;-71
2023/02/21 07:25:04;;;;;;;52.80;25.77;;;11.10;99.90;;;;;;5051665;28;20506;-73
2023/02/21 07:27:30;;;;;;;48.38;25.05;;;11.00;99.90;;;;;;5051422;28;20120;-74
2023/02/21 07:29:55;;;;;;;52.40;25.35;;;11.10;99.90;;;;;;5049950;28;20183;-74
2023/02/21 07:32:21;;;;;;;51.67;24.80;;;11.10;99.90;;;;;;5051185;28;20029;-73
2023/02/21 07:34:47;;;;;;;49.78;24.08;;;11.10;99.90;;;;;;5051345;28;20033;-73
2023/02/21 07:37:13;;;;;;;51.60;26.50;;;11.20;99.90;;;;;;5050928;28;20454;-73
2023/02/21 07:39:39;;;;;;;61.13;27.88;;;11.10;99.90;;;;;;5051016;28;20021;-73
2023/02/21 07:42:07;;;;;;;50.53;24.75;;;11.20;99.90;;;;;;5050935;28;20037;-73
2023/02/21 07:44:33;;;;;;;54.93;27.80;;;11.30;99.90;;;;;;5049497;28;20037;-74
2023/02/21 07:46:59;;;;;;;53.72;26.67;;;11.30;99.90;;;;;;5050736;28;20447;-72
2023/02/21 07:49:25;;;;;;;48.75;25.50;;;11.20;99.90;;;;;;5050073;28;20036;-71
2023/02/21 07:51:51;;;;;;;50.35;25.38;;;11.20;99.90;;;;;;5050039;28;20029;-72
2023/02/21 07:54:17;;;;;;;56.65;25.52;;;11.20;99.90;;;;;;5049630;28;20041;-73
2023/02/21 07:56:47;;;;;;;54.15;25.50;;;11.20;99.90;;;;;;5050831;28;20033;-75
2023/02/21 07:59:14;;;;;;;62.85;28.42;;;11.30;99.90;;;;;;5051530;28;20037;-72
2023/02/21 08:01:40;;;;;;;49.95;25.92;;;11.30;99.90;;;;;;5050229;28;20096;-74
2023/02/21 08:04:06;;;;;;;52.50;26.08;;;11.20;99.90;;;;;;5050769;28;20060;-74
2023/02/21 08:06:33;;;;;;;55.75;27.58;;;11.30;99.90;;;;;;5050401;28;20032;-73
2023/02/21 08:08:59;;;;;;;60.38;27.23;;;11.30;99.90;;;;;;5050419;28;20029;-73
2023/02/21 08:11:25;;;;;;;56.40;26.90;;;11.20;99.90;;;;;;5050621;28;20406;-73
2023/02/21 08:13:52;;;;;;;51.45;25.20;;;11.40;99.90;;;;;;5049940;28;20040;-72
2023/02/21 08:16:18;;;;;;;63.85;27.58;;;11.40;99.90;;;;;;5050697;28;20120;-72
2023/02/21 08:18:46;;;;;;;54.80;27.52;;;11.30;99.90;;;;;;5050780;28;20112;-72
2023/02/21 08:21:12;;;;;;;54.53;26.02;;;11.20;99.90;;;;;;5050478;28;20131;-72
2023/02/21 08:23:37;;;;;;;57.97;27.58;;;11.20;99.90;;;;;;5049340;28;20117;-72
2023/02/21 08:26:04;;;;;;;56.90;27.35;;;11.30;99.90;;;;;;5049427;28;20112;-72
2023/02/21 08:28:29;;;;;;;56.08;27.13;;;11.30;99.90;;;;;;5050665;28;20045;-72
2023/02/21 08:30:55;;;;;;;62.00;27.95;;;11.40;99.90;;;;;;5050635;28;20040;-71
2023/02/21 08:33:21;;;;;;;58.80;28.42;;;11.40;99.90;;;;;;5050338;28;20101;-71
2023/02/21 08:35:47;;;;;;;52.58;24.95;;;11.30;99.90;;;;;;5049313;28;20102;-72
2023/02/21 08:38:12;;;;;;;55.95;27.95;;;11.30;99.90;;;;;;5048883;28;20041;-71
2023/02/21 08:40:38;;;;;;;56.60;27.67;;;11.40;99.90;;;;;;5050939;28;20025;-73
2023/02/21 08:43:04;;;;;;;58.88;28.50;;;11.40;99.90;;;;;;5050185;28;20040;-72
2023/02/21 08:45:31;;;;;;;57.67;28.92;;;11.30;99.90;;;;;;5050262;28;20025;-71
2023/02/21 08:47:58;;;;;;;58.80;28.10;;;11.40;99.90;;;;;;5053948;28;20036;-70
2023/02/21 08:50:25;;;;;;;58.47;28.48;;;11.40;99.90;;;;;;5053386;28;20021;-72
2023/02/21 08:52:51;;;;;;;60.78;27.90;;;11.30;99.90;;;;;;5054402;28;20112;-71
2023/02/21 08:55:18;;;;;;;57.30;27.38;;;11.30;99.90;;;;;;5054032;28;20416;-72
2023/02/21 08:57:46;;;;;;;57.80;28.27;;;11.20;99.90;;;;;;5054127;28;20033;-71
2023/02/21 09:00:14;;;;;;;54.45;27.45;;;11.30;99.90;;;;;;5054183;28;20029;-71
2023/02/21 09:02:39;;;;;;;58.65;27.55;;;11.20;99.90;;;;;;5053153;28;20102;-73
2023/02/21 09:05:19;;;;;;;53.30;27.77;;;11.30;99.90;;;;;;5054116;28;20033;-72
2023/02/21 09:07:48;;;;;;;56.92;26.77;;;11.20;99.90;;;;;;5053489;28;20032;-72
2023/02/21 09:10:15;;;;;;;63.17;27.67;;;11.30;99.90;;;;;;5053731;28;20036;-72
2023/02/21 09:12:41;;;;;;;53.42;25.40;;;11.30;99.90;;;;;;5053885;28;20044;-72
2023/02/21 09:15:07;;;;;;;58.80;27.17;;;11.40;99.90;;;;;;5052610;28;20478;-72
2023/02/21 09:17:34;;;;;;;51.22;25.77;;;11.30;99.90;;;;;;5053917;28;20025;-71
2023/02/21 09:20:05;;;;;;;52.85;25.75;;;11.20;99.90;;;;;;5054113;28;20375;-72
2023/02/21 09:22:32;;;;;;;56.20;25.60;;;11.20;99.90;;;;;;5053906;28;20024;-72
2023/02/21 09:24:58;;;;;;;56.92;26.40;;;11.20;99.90;;;;;;5053728;28;20119;-72
2023/02/21 09:27:36;;;;;;;53.80;25.20;;;11.20;99.90;;;;;;5052367;28;20029;-72
2023/02/21 09:30:14;;;;;;;66.85;28.02;;;11.20;99.90;;;;;;5053418;28;20045;-72
2023/02/21 09:32:41;;;;;;;64.93;28.77;;;11.20;99.90;;;;;;5053550;28;20029;-70
2023/02/21 09:35:08;;;;;;;58.40;27.80;;;11.20;99.90;;;;;;5052257;28;20082;-71
2023/02/21 09:37:37;;;;;;;56.28;27.48;;;11.30;99.90;;;;;;5053854;28;20013;-72
2023/02/21 09:40:09;;;;;;;63.05;28.25;;;11.30;99.90;;;;;;5052503;28;20037;-70
2023/02/21 09:42:35;;;;;;;56.38;27.52;;;11.30;99.90;;;;;;5053240;28;20040;-72
2023/02/21 09:45:01;;;;;;;59.78;27.25;;;11.40;99.90;;;;;;5053124;28;20025;-71
2023/02/21 09:47:30;;;;;;;55.03;25.85;;;11.50;99.90;;;;;;5052991;28;20041;-71
2023/02/21 09:50:03;;;;;;;52.03;25.48;;;11.60;99.90;;;;;;5052717;28;20413;-71
2023/02/21 09:52:38;;;;;;;61.28;25.90;;;11.70;99.90;;;;;;5053373;28;20021;-70
2023/02/21 09:55:32;;;;;;;51.75;25.77;;;11.70;99.90;;;;;;5052766;28;20036;-70
2023/02/21 09:57:58;;;;;;;57.20;26.83;;;11.70;99.90;;;;;;5052288;28;20124;-71
2023/02/21 10:00:33;;;;;;;57.03;25.80;;;11.80;99.90;;;;;;5051249;28;20116;-71
2023/02/21 10:03:14;;;;;;;57.38;27.38;;;11.90;99.90;;;;;;5052460;28;20095;-70
2023/02/21 10:06:09;;;;;;;60.53;26.40;;;11.90;99.90;;;;;;5051469;28;20089;-72
2023/02/21 10:08:44;;;;;;;57.80;26.42;;;12.00;99.90;;;;;;5053261;28;20044;-72
2023/02/21 10:11:21;;;;;;;53.00;24.85;;;12.00;99.90;;;;;;5052106;28;20090;-71
2023/02/21 10:14:17;;;;;;;52.97;25.35;;;12.00;99.90;;;;;;5053017;28;20021;-72
2023/02/21 10:16:50;;;;;;;57.85;25.55;;;11.90;99.90;;;;;;5051714;28;20479;-71
2023/02/21 10:19:30;;;;;;;52.45;25.85;;;12.20;99.90;;;;;;5052456;28;20040;-71
2023/02/21 10:21:59;;;;;;;49.50;23.98;;;12.10;99.90;;;;;;5052277;28;20120;-72
2023/02/21 10:24:27;;;;;;;51.25;25.70;;;12.00;99.90;;;;;;5052198;28;20124;-71
2023/02/21 10:27:04;;;;;;;52.03;24.40;;;12.10;99.90;;;;;;5051651;28;20071;-72
2023/02/21 10:29:39;;;;;;;51.88;25.25;;;11.90;99.90;;;;;;5052125;28;20041;-72
2023/02/21 10:32:06;;;;;;;48.47;24.30;;;11.90;99.90;;;;;;5050730;28;20255;-71
2023/02/21 10:34:34;;;;;;;56.20;25.77;;;12.00;99.90;;;;;;5052355;28;20040;-73
2023/02/21 10:37:17;;;;;;;55.43;25.07;;;12.10;99.90;;;;;;5050508;28;20108;-73
2023/02/21 10:39:47;;;;;;;49.63;23.83;;;11.90;99.90;;;;;;5051911;28;20475;-71
2023/02/21 10:42:30;;;;;;;45.63;22.90;;;12.00;99.90;;;;;;5051943;28;20062;-72
2023/02/21 10:44:57;;;;;;;58.20;28.77;;;12.00;99.90;;;;;;5052360;28;20029;-70
2023/02/21 10:47:33;;;;;;;68.47;28.33;;;12.00;99.90;;;;;;5052071;28;20032;-72
2023/02/21 10:50:10;;;;;;;52.45;23.55;;;12.00;99.90;;;;;;5052126;28;20379;-71
2023/02/21 10:52:49;;;;;;;50.63;23.10;;;12.10;99.90;;;;;;5051628;28;20108;-72
2023/02/21 10:55:21;;;;;;;47.72;23.15;;;12.10;99.90;;;;;;5052200;28;20505;-72
2023/02/21 10:57:56;;;;;;;47.20;21.60;;;12.10;99.90;;;;;;5051915;28;20153;-72
2023/02/21 11:00:36;;;;;;;54.67;23.60;;;12.10;99.90;;;;;;5052262;28;20461;-71
2023/02/21 11:03:20;;;;;;;47.33;23.05;;;12.10;99.90;;;;;;5050453;28;20401;-72
2023/02/21 11:05:50;;;;;;;45.28;21.67;;;12.10;99.90;;;;;;5050851;28;20418;-71
2023/02/21 11:08:41;;;;;;;45.40;21.92;;;12.10;99.90;;;;;;5051257;28;20431;-72
2023/02/21 11:11:07;;;;;;;48.28;22.35;;;12.20;99.90;;;;;;5051306;28;20055;-71
2023/02/21 11:13:34;;;;;;;41.28;21.38;;;12.10;99.90;;;;;;5051821;28;20336;-70
2023/02/21 11:16:29;;;;;;;46.47;22.70;;;12.10;99.90;;;;;;5051180;28;20104;-71
2023/02/21 11:19:06;;;;;;;45.17;20.10;;;12.00;99.90;;;;;;5048810;28;20029;-71
2023/02/21 11:21:32;;;;;;;45.65;21.23;;;12.00;99.90;;;;;;5051249;28;20025;-70
2023/02/21 11:24:02;;;;;;;48.38;23.27;;;11.90;99.90;;;;;;5051105;28;20462;-70
2023/02/21 11:26:34;;;;;;;48.97;22.08;;;12.00;99.90;;;;;;5051251;28;20047;-72
2023/02/21 11:29:17;;;;;;;46.80;22.00;;;12.00;99.90;;;;;;5051012;28;20072;-71
2023/02/21 11:31:43;;;;;;;48.67;21.83;;;12.00;99.90;;;;;;5050567;28;20055;-71
2023/02/21 11:34:13;;;;;;;40.50;21.33;;;11.80;99.90;;;;;;5051102;28;20036;-72
2023/02/21 11:36:44;;;;;;;43.38;20.45;;;12.00;99.90;;;;;;5050207;28;20033;-72
2023/02/21 11:39:30;;;;;;;46.10;21.08;;;12.00;99.90;;;;;;5051079;28;20029;-72
2023/02/21 11:41:58;;;;;;;46.33;20.65;;;12.10;99.90;;;;;;5049824;28;20043;-72
2023/02/21 11:44:36;;;;;;;43.67;20.52;;;12.30;99.90;;;;;;5049687;28;20040;-70
2023/02/21 11:47:21;;;;;;;44.58;20.67;;;12.50;99.90;;;;;;5050773;28;20025;-71
2023/02/21 11:49:58;;;;;;;43.30;20.17;;;12.40;99.90;;;;;;5051320;28;20117;-69
2023/02/21 11:52:37;;;;;;;39.33;19.13;;;12.60;99.90;;;;;;5050719;28;20048;-68
2023/02/21 11:55:11;;;;;;;41.40;19.80;;;12.70;99.90;;;;;;5050659;28;20051;-71
2023/02/21 11:58:14;;;;;;;35.10;18.63;;;13.00;99.90;;;;;;5050746;28;20048;-69
2023/02/21 12:01:15;;;;;;;39.85;18.25;;;13.00;99.90;;;;;;5050246;28;20029;-69
2023/02/21 12:04:04;;;;;;;34.15;18.23;;;13.30;99.90;;;;;;5047730;28;20037;-70
2023/02/21 12:07:01;;;;;;;33.78;16.77;;;13.30;99.90;;;;;;5050793;28;20033;-71
2023/02/21 12:09:41;;;;;;;35.45;16.38;;;13.50;99.90;;;;;;5051226;28;20109;-71
2023/02/21 12:12:31;;;;;;;32.10;16.50;;;13.50;99.90;;;;;;5049394;28;20037;-71
2023/02/21 12:15:30;;;;;;;35.97;16.95;;;13.40;99.90;;;;;;5050561;28;20041;-71
2023/02/21 12:18:02;;;;;;;32.90;15.93;;;13.40;99.90;;;;;;5050388;28;20051;-71
2023/02/21 12:20:42;;;;;;;31.10;16.00;;;13.50;99.90;;;;;;5050544;28;20044;-71
2023/02/21 12:23:36;;;;;;;29.20;15.48;;;13.20;99.90;;;;;;5050253;28;20032;-73
2023/02/21 12:26:17;;;;;;;28.38;14.73;;;13.50;99.90;;;;;;5048845;28;20486;-72
2023/02/21 12:29:20;;;;;;;29.55;15.20;;;13.60;99.90;;;;;;5050181;28;20080;-73
2023/02/21 12:32:07;;;;;;;26.85;14.13;;;13.70;99.90;;;;;;5049104;28;20037;-70
2023/02/21 12:35:02;;;;;;;27.73;14.18;;;13.60;99.90;;;;;;5050183;28;20033;-71
2023/02/21 12:37:56;;;;;;;25.70;14.38;;;13.70;99.90;;;;;;5050654;28;20040;-70
2023/02/21 12:40:49;;;;;;;27.20;14.98;;;14.00;99.90;;;;;;5049995;28;20440;-72
2023/02/21 12:43:48;;;;;;;27.05;13.80;;;14.20;99.90;;;;;;5051106;28;20029;-71
2023/02/21 12:46:39;;;;;;;29.10;13.52;;;14.20;99.90;;;;;;5051076;28;20090;-71
2023/02/21 12:49:36;;;;;;;27.58;13.82;;;14.20;99.90;;;;;;5051536;28;20029;-73
2023/02/21 12:52:14;;;;;;;23.98;12.85;;;14.20;99.90;;;;;;5048778;28;20104;-71
2023/02/21 12:54:49;;;;;;;22.80;13.50;;;14.10;99.90;;;;;;5049875;28;20033;-73
2023/02/21 12:57:49;;;;;;;21.80;12.77;;;14.10;99.90;;;;;;5050003;28;20433;-71
2023/02/21 13:00:51;;;;;;;23.55;13.43;;;14.10;99.90;;;;;;5045116;28;20359;-72
2023/02/21 13:03:33;;;;;;;21.65;12.07;;;13.90;99.90;;;;;;5040465;28;20041;-72
2023/02/21 13:06:09;;;;;;;21.08;12.20;;;13.70;99.90;;;;;;5049216;28;20354;-75
2023/02/21 13:08:45;;;;;;;22.13;12.43;;;13.80;99.90;;;;;;5050938;28;20037;-74
2023/02/21 13:11:36;;;;;;;21.33;12.10;;;13.70;99.90;;;;;;5050408;28;20504;-74
2023/02/21 13:14:06;;;;;;;24.08;12.77;;;13.60;99.90;;;;;;5051103;28;20470;-71
2023/02/21 13:16:32;;;;;;;20.73;12.30;;;13.80;99.90;;;;;;5051934;28;20025;-72
2023/02/21 13:19:06;;;;;;;24.92;13.10;;;13.80;99.90;;;;;;5051095;28;20363;-71
2023/02/21 13:21:44;;;;;;;46.63;24.35;;;13.70;99.90;;;;;;5051023;28;20033;-71
2023/02/21 13:24:32;;;;;;;32.85;17.55;;;13.60;99.90;;;;;;5051006;28;20032;-72
2023/02/21 13:27:41;;;;;;;24.98;13.95;;;13.50;99.90;;;;;;5050741;28;20064;-73
2023/02/21 13:30:16;;;;;;;31.48;14.18;;;13.50;99.90;;;;;;5051507;28;20056;-73
2023/02/21 13:32:54;;;;;;;22.92;12.77;;;13.40;99.90;;;;;;5052187;28;20049;-72
2023/02/21 13:35:27;;;;;;;21.73;12.93;;;13.40;99.90;;;;;;5054979;28;20526;-72
2023/02/21 13:37:54;;;;;;;25.25;12.95;;;13.50;99.90;;;;;;5054146;28;20157;-72
2023/02/21 13:40:23;;;;;;;26.33;13.48;;;13.50;99.90;;;;;;5055471;28;20027;-73
2023/02/21 13:43:03;;;;;;;28.67;15.15;;;13.50;99.90;;;;;;5054378;28;20056;-72
2023/02/21 13:45:29;;;;;;;27.95;14.48;;;13.60;99.90;;;;;;5054298;28;20029;-73
2023/02/21 13:48:04;;;;;;;30.60;14.43;;;13.40;99.90;;;;;;5053813;28;20068;-73
2023/02/21 13:50:33;;;;;;;25.60;13.48;;;13.30;99.90;;;;;;5053522;28;20040;-71
2023/02/21 13:53:22;;;;;;;27.98;14.63;;;13.20;99.90;;;;;;5052402;28;20075;-72
2023/02/21 13:56:06;;;;;;;28.95;14.70;;;13.30;99.90;;;;;;5053841;28;20458;-72
2023/02/21 13:58:43;;;;;;;26.92;14.25;;;13.40;99.90;;;;;;5053358;28;20049;-73
2023/02/21 14:01:39;;;;;;;30.63;14.65;;;13.20;99.90;;;;;;5054509;28;20033;-71
2023/02/21 14:04:53;;;;;;;27.20;13.65;;;13.20;99.90;;;;;;5053094;28;20041;-71
2023/02/21 14:07:43;;;;;;;28.73;15.13;;;13.20;99.90;;;;;;5036898;28;20120;-73
2023/02/21 14:10:39;;;;;;;30.77;15.30;;;13.20;99.90;;;;;;5054951;28;20029;-72
2023/02/21 14:13:20;;;;;;;31.40;15.63;;;13.20;99.90;;;;;;5032468;28;20048;-72
2023/02/21 14:15:48;;;;;;;33.33;16.02;;;13.30;99.90;;;;;;5052575;28;20067;-72
2023/02/21 14:18:29;;;;;;;31.85;15.20;;;13.40;99.90;;;;;;5051595;28;20033;-73
2023/02/21 14:20:56;;;;;;;29.75;15.77;;;13.30;99.90;;;;;;5051589;28;20162;-73
2023/02/21 14:23:31;;;;;;;30.08;16.00;;;13.00;99.90;;;;;;5052547;28;20090;-71
2023/02/21 14:26:01;;;;;;;32.35;15.70;;;13.10;99.90;;;;;;5051149;28;20033;-71
2023/02/21 14:28:55;;;;;;;34.13;16.77;;;13.20;99.90;;;;;;5052917;28;20075;-71
2023/02/21 14:31:54;;;;;;;29.73;16.00;;;13.20;99.90;;;;;;5053414;28;20120;-72
2023/02/21 14:34:48;;;;;;;34.60;16.75;;;13.20;99.90;;;;;;5053510;28;20064;-73
2023/02/21 14:37:34;;;;;;;33.88;16.80;;;13.20;99.90;;;;;;5048851;28;20029;-71
2023/02/21 14:40:09;;;;;;;34.45;15.85;;;13.00;99.90;;;;;;5052617;28;20025;-71
2023/02/21 14:43:06;;;;;;;33.53;16.55;;;12.90;99.90;;;;;;5052773;28;20029;-71
2023/02/21 14:45:50;;;;;;;32.10;15.43;;;12.80;99.90;;;;;;5051936;28;20364;-72
2023/02/21 14:48:40;;;;;;;34.25;16.98;;;12.80;99.90;;;;;;5052825;28;20094;-71
2023/02/21 14:51:24;;;;;;;29.70;14.60;;;12.80;99.90;;;;;;5051976;28;20087;-72
2023/02/21 14:54:13;;;;;;;35.00;16.58;;;12.90;99.90;;;;;;5052057;28;20033;-72
2023/02/21 14:57:03;;;;;;;35.40;17.10;;;12.90;99.90;;;;;;5051966;28;20032;-72
2023/02/21 14:59:54;;;;;;;33.13;16.30;;;13.00;99.90;;;;;;5051443;28;20033;-71
2023/02/21 15:02:29;;;;;;;36.97;16.98;;;13.10;99.90;;;;;;5051305;28;20132;-71
2023/02/21 15:04:58;;;;;;;40.92;18.98;;;13.00;99.90;;;;;;5050340;28;20090;-71
2023/02/21 15:07:36;;;;;;;34.58;17.30;;;12.70;99.90;;;;;;5050839;28;20494;-71
2023/02/21 15:10:14;;;;;;;35.03;17.75;;;12.90;99.90;;;;;;5051180;28;20037;-71
2023/02/21 15:13:01;;;;;;;36.95;17.70;;;12.60;99.90;;;;;;5050257;28;20037;-72
2023/02/21 15:15:31;;;;;;;38.40;17.63;;;12.70;99.90;;;;;;5051174;28;20375;-71